Time;durP1;ratioP1;P1;durP2;ratioP2;P2;SDS_P1;SDS_P2;PMS_P1;PMS_P2;Temp;Humidity;BMP_temperature;BMP_pressure;BME280_temperature;BME280_humidity;BME280_pressure;Samples;Min_cycle;Max_cycle;Signal;HPM_P1;HPM_P2
2022/12/06 00:01:41;;;;;;;0.22;0.22;;;;;;;7.68;71.48;102232.59;5036801;28;20037;-86
2022/12/06 00:04:10;;;;;;;0.10;0.10;;;;;;;7.59;71.57;102237.75;5045226;28;20037;-86
2022/12/06 00:06:39;;;;;;;0.10;0.10;;;;;;;7.54;71.36;102239.41;5046165;28;20034;-86
2022/12/06 00:09:06;;;;;;;0.15;0.15;;;;;;;7.53;71.13;102243.81;5045429;28;20041;-86
2022/12/06 00:11:34;;;;;;;0.15;0.15;;;;;;;7.53;71.44;102242.94;5038331;28;20036;-86
2022/12/06 00:14:03;;;;;;;0.10;0.10;;;;;;;7.57;71.60;102244.75;5034231;28;20053;-87
2022/12/06 00:16:30;;;;;;;0.25;0.25;;;;;;;7.58;71.79;102241.25;5040295;28;20040;-86
2022/12/06 00:18:57;;;;;;;0.10;0.10;;;;;;;7.61;71.35;102238.63;5041425;28;20025;-86
2022/12/06 00:24:02;;;;;;;0.10;0.10;;;;;;;7.61;72.10;102242.19;5065862;27;2112517;-86
2022/12/06 00:26:29;;;;;;;0.10;0.10;;;;;;;7.57;71.99;102242.09;5110102;28;20055;-85
2022/12/06 00:28:58;;;;;;;0.15;0.15;;;;;;;7.58;71.98;102236.84;5109926;28;20027;-86
2022/12/06 00:31:27;;;;;;;0.20;0.20;;;;;;;7.56;71.46;102240.31;5105198;28;20032;-86
2022/12/06 00:33:53;;;;;;;0.10;0.10;;;;;;;7.54;71.90;102235.03;5099723;28;20452;-86
2022/12/06 00:36:22;;;;;;;0.20;0.20;;;;;;;7.52;71.84;102227.97;5103613;28;20059;-86
2022/12/06 00:38:49;;;;;;;0.40;0.40;;;;;;;7.54;71.83;102228.84;5102260;28;20024;-87
2022/12/06 00:41:17;;;;;;;0.10;0.10;;;;;;;7.54;71.69;102228.84;5107420;28;20106;-87
2022/12/06 00:43:44;;;;;;;0.10;0.10;;;;;;;7.54;71.66;102227.13;5108227;28;20027;-87
2022/12/06 00:46:16;;;;;;;0.17;0.17;;;;;;;7.57;71.56;102231.56;5104523;28;20459;-87
2022/12/06 00:48:42;;;;;;;0.20;0.20;;;;;;;7.59;71.61;102235.13;5106411;28;20051;-86
2022/12/06 00:51:09;;;;;;;0.20;0.20;;;;;;;7.57;71.95;102234.19;5105796;28;20291;-87
2022/12/06 00:53:35;;;;;;;0.10;0.10;;;;;;;7.55;71.64;102228.91;5105571;28;20030;-86
2022/12/06 00:56:02;;;;;;;0.17;0.17;;;;;;;7.54;71.55;102235.03;5106395;28;20031;-86
2022/12/06 00:58:28;;;;;;;0.10;0.10;;;;;;;7.54;71.72;102236.78;5107147;28;20035;-86
2022/12/06 01:00:54;;;;;;;0.10;0.10;;;;;;;7.52;71.53;102235.88;5107484;28;20069;-86
2022/12/06 01:03:21;;;;;;;0.10;0.10;;;;;;;7.50;71.37;102238.50;5105819;28;20028;-87
2022/12/06 01:05:49;;;;;;;0.10;0.10;;;;;;;7.48;71.69;102236.69;5105592;28;20028;-86
2022/12/06 01:08:17;;;;;;;0.20;0.20;;;;;;;7.49;71.46;102230.53;5107263;28;20505;-87
2022/12/06 01:10:53;;;;;;;0.10;0.10;;;;;;;7.53;71.56;102235.03;5104998;28;20471;-86
2022/12/06 01:13:20;;;;;;;0.13;0.13;;;;;;;7.49;71.93;102230.53;5105858;28;20100;-86
2022/12/06 01:15:46;;;;;;;0.10;0.10;;;;;;;7.47;71.83;102227.91;5103053;28;20027;-87
2022/12/06 01:18:12;;;;;;;0.10;0.10;;;;;;;7.45;71.95;102227.88;5104433;28;20101;-87
2022/12/06 01:20:38;;;;;;;0.10;0.10;;;;;;;7.43;71.56;102226.94;5105017;28;20527;-86
2022/12/06 01:23:05;;;;;;;0.10;0.10;;;;;;;7.45;71.44;102230.50;5105072;28;20035;-86
2022/12/06 01:25:31;;;;;;;0.13;0.13;;;;;;;7.43;71.96;102224.31;5111340;28;20398;-86
2022/12/06 01:27:58;;;;;;;0.20;0.20;;;;;;;7.42;71.51;102219.91;5105785;28;20034;-87
2022/12/06 01:30:25;;;;;;;0.10;0.10;;;;;;;7.41;71.45;102218.16;5104784;28;20055;-86
2022/12/06 01:32:51;;;;;;;0.20;0.20;;;;;;;7.37;71.71;102220.72;5105448;28;20376;-86
2022/12/06 01:35:17;;;;;;;0.38;0.38;;;;;;;7.38;71.95;102226.00;5089872;28;20742;-86
2022/12/06 01:37:43;;;;;;;0.10;0.10;;;;;;;7.35;71.57;102218.06;5088204;28;20035;-86
2022/12/06 01:40:10;;;;;;;0.65;0.65;;;;;;;7.37;71.81;102225.97;5093952;28;20542;-86
2022/12/06 01:42:37;;;;;;;0.10;0.10;;;;;;;7.31;71.67;102231.16;5090821;28;20055;-85
2022/12/06 01:45:03;;;;;;;0.10;0.10;;;;;;;7.30;71.79;102235.53;5089908;28;20035;-86
2022/12/06 01:47:34;;;;;;;0.10;0.10;;;;;;;7.30;71.89;102227.63;5090748;28;20621;-86
2022/12/06 01:50:08;;;;;;;0.38;0.38;;;;;;;7.29;72.10;102228.50;5088509;28;20491;-85
2022/12/06 01:52:40;;;;;;;0.20;0.20;;;;;;;7.26;72.11;102218.81;5091826;28;20059;-86
2022/12/06 01:55:09;;;;;;;0.20;0.20;;;;;;;7.25;72.24;102226.66;5091779;28;20035;-86
2022/12/06 01:57:36;;;;;;;0.10;0.10;;;;;;;7.26;72.42;102225.81;5090585;28;20048;-86
2022/12/06 02:00:04;;;;;;;0.10;0.10;;;;;;;7.27;72.40;102215.28;5089694;28;20021;-86
2022/12/06 02:02:30;;;;;;;0.10;0.10;;;;;;;7.28;72.18;102218.81;5090727;28;20058;-86
2022/12/06 02:04:58;;;;;;;0.10;0.10;;;;;;;7.27;72.10;102223.19;5092945;28;20074;-85
2022/12/06 02:07:26;;;;;;;0.20;0.20;;;;;;;7.29;71.95;102220.59;5092931;28;20089;-86
2022/12/06 02:09:53;;;;;;;0.10;0.10;;;;;;;7.26;72.24;102223.16;5092267;28;20491;-86
2022/12/06 02:12:19;;;;;;;0.10;0.10;;;;;;;7.27;72.54;102220.56;5088238;28;20398;-86
2022/12/06 02:14:51;;;;;;;0.10;0.10;;;;;;;7.27;72.46;102220.56;5093459;28;20024;-85
2022/12/06 02:23:25;;;;;;;0.10;0.10;;;;;;;7.37;72.53;102216.31;5044712;28;20417;-79
2022/12/06 02:26:17;;;;;;;0.10;0.10;;;;;;;7.37;71.87;102218.94;5012547;28;20508;-79
2022/12/06 02:31:30;;;;;;;0.10;0.10;;;;;;;7.34;72.14;102215.38;5063212;28;20407;-79
2022/12/06 02:34:20;;;;;;;0.10;0.10;;;;;;;7.35;71.95;102207.50;5061557;28;20112;-79
2022/12/06 02:37:10;;;;;;;0.30;0.30;;;;;;;7.35;71.91;102211.88;5055234;28;20040;-80
2022/12/06 02:39:44;;;;;;;0.20;0.20;;;;;;;7.33;71.94;102213.59;5057767;28;20518;-81
2022/12/06 02:42:20;;;;;;;0.20;0.20;;;;;;;7.34;72.11;102215.38;5061382;28;20033;-80
2022/12/06 02:44:52;;;;;;;0.40;0.40;;;;;;;7.33;71.78;102211.88;5059927;28;20055;-79
2022/12/06 02:47:23;;;;;;;0.10;0.10;;;;;;;7.27;71.87;102209.13;5077893;28;20030;-81
2022/12/06 02:49:53;;;;;;;0.32;0.32;;;;;;;7.30;72.13;102203.88;5066697;28;20037;-79
2022/12/06 02:52:23;;;;;;;0.10;0.10;;;;;;;7.30;71.87;102203.88;5071647;28;20031;-80
2022/12/06 02:54:51;;;;;;;0.10;0.10;;;;;;;7.28;71.87;102203.88;5070169;28;20025;-80
2022/12/06 02:57:24;;;;;;;0.10;0.10;;;;;;;7.33;72.08;102209.22;5078279;28;20043;-81
2022/12/06 02:59:52;;;;;;;0.10;0.10;;;;;;;7.31;71.85;102210.94;5072809;28;20044;-80
2022/12/06 03:02:18;;;;;;;0.20;0.20;;;;;;;7.30;71.56;102206.53;5067052;28;20098;-81
2022/12/06 03:10:28;;;;;;;0.10;0.10;;;;;;;7.33;71.94;102205.69;5057643;28;20414;-79
2022/12/06 03:13:11;;;;;;;0.10;0.10;;;;;;;7.35;71.67;102202.25;5047166;28;20495;-80
2022/12/06 03:16:03;;;;;;;0.13;0.13;;;;;;;7.36;71.58;102208.38;5045506;28;20044;-80
2022/12/06 03:18:40;;;;;;;0.10;0.10;;;;;;;7.35;72.15;102204.88;5045136;28;20080;-81
2022/12/06 03:21:12;;;;;;;0.10;0.10;;;;;;;7.35;72.16;102207.50;5046727;28;20032;-81
2022/12/06 03:23:43;;;;;;;0.20;0.20;;;;;;;7.36;71.56;102206.63;5052040;28;20410;-80
2022/12/06 03:26:13;;;;;;;0.38;0.38;;;;;;;7.34;71.84;102205.72;5046149;28;20037;-80
2022/12/06 03:28:41;;;;;;;0.10;0.10;;;;;;;7.34;71.94;102216.28;5050682;28;20025;-80
2022/12/06 03:31:10;;;;;;;0.20;0.20;;;;;;;7.30;71.85;102209.16;5048372;28;20099;-82
2022/12/06 03:33:43;;;;;;;0.10;0.10;;;;;;;7.35;71.45;102206.59;5049760;28;20032;-80
2022/12/06 03:36:12;;;;;;;0.10;0.10;;;;;;;7.36;71.82;102203.97;5047236;28;20025;-79
2022/12/06 03:38:48;;;;;;;0.15;0.15;;;;;;;7.37;71.23;102203.13;5048350;28;20021;-80
2022/12/06 03:41:18;;;;;;;0.10;0.10;;;;;;;7.37;71.86;102203.13;5044893;28;20061;-80
2022/12/06 03:43:44;;;;;;;0.20;0.20;;;;;;;7.34;71.22;102208.38;5044088;28;20513;-80
2022/12/06 03:46:19;;;;;;;0.10;0.10;;;;;;;7.36;71.80;102211.91;5044837;28;20491;-80
2022/12/06 03:48:58;;;;;;;0.30;0.30;;;;;;;7.36;71.92;102211.03;5048425;28;20108;-80
2022/12/06 03:51:29;;;;;;;0.20;0.20;;;;;;;7.36;71.88;102214.53;5047203;28;20150;-81
2022/12/06 03:54:03;;;;;;;0.10;0.10;;;;;;;7.38;71.53;102207.53;5049387;28;20036;-80
2022/12/06 03:56:35;;;;;;;0.10;0.10;;;;;;;7.38;71.83;102202.28;5046460;28;20036;-81
2022/12/06 03:59:03;;;;;;;0.20;0.20;;;;;;;7.39;71.76;102201.41;5039871;28;20027;-80
2022/12/06 04:01:29;;;;;;;0.10;0.10;;;;;;;7.38;71.37;102199.63;5045359;28;20037;-80
2022/12/06 04:03:55;;;;;;;0.10;0.10;;;;;;;7.41;71.32;102202.34;5044847;28;20041;-80
2022/12/06 04:06:22;;;;;;;0.20;0.20;;;;;;;7.40;71.44;102200.56;5045753;28;20056;-80
2022/12/06 04:08:48;;;;;;;0.10;0.10;;;;;;;7.41;71.54;102190.88;5044977;28;20052;-80
2022/12/06 04:11:14;;;;;;;0.10;0.10;;;;;;;7.42;71.29;102204.06;5047909;28;20037;-80
2022/12/06 04:13:40;;;;;;;0.10;0.10;;;;;;;7.40;71.46;102204.91;5046323;28;20566;-80
2022/12/06 04:18:09;;;;;;;0.20;0.20;;;;;;;7.41;71.78;102204.06;5043627;28;20120;-80
2022/12/06 04:18:54;;;;;;;0.10;0.10;;;;;;;7.38;71.15;102206.66;5047696;28;20100;-80
2022/12/06 04:24:07;;;;;;;0.10;0.10;;;;;;;7.29;71.01;102207.41;5038498;28;20034;-80
2022/12/06 04:26:33;;;;;;;0.15;0.15;;;;;;;7.22;71.22;102211.69;5036868;28;20045;-80
2022/12/06 04:40:04;;;;;;;1.67;1.58;;;;;;;7.10;71.15;102201.84;5038456;28;20144;-80
2022/12/06 04:45:17;;;;;;;0.10;0.10;;;;;;;7.10;71.29;102196.56;5035920;28;20076;-80
2022/12/06 04:47:43;;;;;;;0.30;0.30;;;;;;;7.08;71.93;102198.28;5032627;28;20064;-81
2022/12/06 04:50:09;;;;;;;0.13;0.13;;;;;;;7.07;71.45;102196.50;5039829;28;20506;-80
2022/12/06 04:52:35;;;;;;;0.10;0.10;;;;;;;7.07;71.59;102191.25;5034042;28;20029;-80
2022/12/06 04:55:01;;;;;;;0.10;0.10;;;;;;;7.08;71.60;102186.88;5032652;28;20111;-81
2022/12/06 04:57:27;;;;;;;0.10;0.10;;;;;;;7.07;71.22;102191.25;5034964;28;20041;-80
2022/12/06 04:59:54;;;;;;;0.10;0.10;;;;;;;7.08;71.97;102193.03;5035117;28;20034;-80
2022/12/06 05:02:20;;;;;;;0.10;0.10;;;;;;;7.07;71.89;102190.38;5026007;28;20049;-80
2022/12/06 05:04:46;;;;;;;0.10;0.10;;;;;;;7.06;71.46;102185.94;5035001;28;20040;-80
2022/12/06 05:07:12;;;;;;;0.10;0.10;;;;;;;7.04;71.64;102185.94;5036517;28;20434;-80
2022/12/06 05:09:38;;;;;;;0.43;0.43;;;;;;;7.03;71.51;102189.44;5036484;28;20415;-80
2022/12/06 05:12:04;;;;;;;0.10;0.10;;;;;;;7.00;71.30;102184.09;5037156;28;20052;-80
2022/12/06 05:14:31;;;;;;;0.10;0.10;;;;;;;6.98;71.12;102183.19;5033614;28;20499;-81
2022/12/06 05:16:57;;;;;;;0.10;0.10;;;;;;;6.93;71.60;102188.38;5039481;28;20033;-81
2022/12/06 05:19:24;;;;;;;0.10;0.10;;;;;;;6.91;71.32;102183.94;5033171;28;20399;-81
2022/12/06 05:21:50;;;;;;;0.10;0.10;;;;;;;6.87;71.29;102183.00;5036488;28;20025;-82
2022/12/06 05:24:16;;;;;;;0.10;0.10;;;;;;;6.80;71.11;102176.75;5036436;28;20066;-82
2022/12/06 05:26:42;;;;;;;0.10;0.10;;;;;;;6.79;71.34;102185.53;5037270;28;20033;-82
2022/12/06 05:29:08;;;;;;;0.10;0.10;;;;;;;6.75;71.69;102183.69;5034866;28;20387;-82
2022/12/06 05:31:34;;;;;;;0.20;0.20;;;;;;;6.74;71.30;102187.19;5029839;28;20076;-81
2022/12/06 05:34:00;;;;;;;0.20;0.20;;;;;;;6.69;71.46;102180.97;5033849;28;20048;-81
2022/12/06 05:36:27;;;;;;;0.10;0.10;;;;;;;6.66;71.32;102183.53;5034724;28;20100;-82
2022/12/06 05:38:54;;;;;;;0.10;0.10;;;;;;;6.62;71.41;102187.84;5027734;28;20581;-82
2022/12/06 05:41:22;;;;;;;0.10;0.10;;;;;;;6.59;71.33;102194.81;5031899;28;20518;-81
2022/12/06 05:43:49;;;;;;;0.10;0.10;;;;;;;6.54;71.73;102186.84;5034747;28;20030;-82
2022/12/06 05:46:15;;;;;;;0.10;0.10;;;;;;;6.51;71.43;102184.13;5037368;28;20036;-82
2022/12/06 05:48:41;;;;;;;0.20;0.20;;;;;;;6.46;71.21;102191.94;5038329;28;20089;-82
2022/12/06 05:51:07;;;;;;;0.20;0.20;;;;;;;6.45;71.52;102189.28;5036795;28;20041;-82
2022/12/06 05:53:34;;;;;;;0.22;0.22;;;;;;;6.44;71.25;102182.25;5030119;28;20033;-82
2022/12/06 05:56:10;;;;;;;0.10;0.10;;;;;;;6.47;71.38;102192.84;5031319;28;20151;-82
2022/12/06 05:58:36;;;;;;;0.20;0.20;;;;;;;6.42;71.59;102184.84;5030813;28;20021;-81
2022/12/06 06:01:04;;;;;;;0.10;0.10;;;;;;;6.40;71.39;102186.56;5040744;28;20037;-81
2022/12/06 06:03:30;;;;;;;0.10;0.10;;;;;;;6.41;71.17;102187.47;5040991;28;20029;-81
2022/12/06 06:05:58;;;;;;;0.10;0.10;;;;;;;6.42;71.64;102184.84;5035788;28;20109;-81
2022/12/06 06:08:26;;;;;;;0.13;0.13;;;;;;;6.40;71.82;102191.81;5035562;28;20549;-81
2022/12/06 06:10:52;;;;;;;0.10;0.10;;;;;;;6.42;71.56;102190.13;5035233;28;20052;-81
2022/12/06 06:13:19;;;;;;;0.10;0.10;;;;;;;6.43;71.78;102186.63;5036624;28;20101;-81
2022/12/06 06:15:46;;;;;;;0.68;0.68;;;;;;;6.43;71.57;102191.00;5040547;28;20578;-81
2022/12/06 06:18:12;;;;;;;0.10;0.10;;;;;;;6.44;71.84;102191.03;5045250;28;20461;-82
2022/12/06 06:20:38;;;;;;;0.10;0.10;;;;;;;6.44;71.70;102193.69;5035119;28;20519;-82
2022/12/06 06:23:05;;;;;;;0.20;0.20;;;;;;;6.43;71.75;102191.00;5036641;28;20403;-81
2022/12/06 06:25:31;;;;;;;0.40;0.40;;;;;;;6.41;71.76;102188.34;5035940;28;20499;-82
2022/12/06 06:27:58;;;;;;;0.10;0.10;;;;;;;6.40;71.49;102193.59;5036975;28;20033;-82
2022/12/06 06:30:24;;;;;;;0.10;0.10;;;;;;;6.38;71.40;102198.81;5029558;28;20111;-81
2022/12/06 06:32:50;;;;;;;0.10;0.10;;;;;;;6.37;71.33;102191.78;5031488;28;20103;-82
2022/12/06 06:35:17;;;;;;;0.20;0.20;;;;;;;6.34;71.41;102191.69;5032921;28;20037;-81
2022/12/06 06:37:43;;;;;;;0.10;0.10;;;;;;;6.34;71.26;102191.69;5033838;28;20029;-81
2022/12/06 06:40:10;;;;;;;0.10;0.10;;;;;;;6.32;71.07;102190.81;5026750;28;20052;-82
2022/12/06 06:42:37;;;;;;;0.10;0.10;;;;;;;6.28;71.30;102191.59;5037044;28;20065;-82
2022/12/06 06:45:03;;;;;;;0.10;0.10;;;;;;;6.21;71.35;102194.97;5016868;28;20392;-83
2022/12/06 06:47:29;;;;;;;0.10;0.10;;;;;;;6.15;71.36;102190.47;5031871;28;20063;-82
2022/12/06 06:49:55;;;;;;;0.10;0.10;;;;;;;6.08;71.13;102185.94;5034291;28;20029;-82
2022/12/06 06:52:21;;;;;;;0.10;0.10;;;;;;;5.99;71.06;102177.00;5033808;28;20041;-83
2022/12/06 06:54:47;;;;;;;0.10;0.10;;;;;;;5.94;71.36;102185.63;5023760;28;20411;-84
2022/12/06 06:57:14;;;;;;;0.10;0.10;;;;;;;5.88;71.18;102182.84;5023828;28;20381;-83
2022/12/06 06:59:40;;;;;;;0.15;0.15;;;;;;;5.82;71.30;102181.88;5021523;28;20430;-83
2022/12/06 07:02:08;;;;;;;0.32;0.32;;;;;;;5.77;71.22;102183.53;5031765;28;20037;-82
2022/12/06 07:04:34;;;;;;;0.10;0.10;;;;;;;5.71;71.04;102177.22;5028096;28;20081;-82
2022/12/06 07:07:00;;;;;;;0.10;0.10;;;;;;;5.65;71.00;102181.50;5038767;28;20045;-83
2022/12/06 07:09:26;;;;;;;0.10;0.10;;;;;;;5.60;71.23;102182.28;5031167;28;20030;-82
2022/12/06 07:11:53;;;;;;;0.10;0.10;;;;;;;5.54;70.91;102180.38;5027662;28;20037;-82
2022/12/06 07:14:19;;;;;;;0.10;0.10;;;;;;;5.50;71.07;102183.81;5031363;28;20761;-82
2022/12/06 07:16:45;;;;;;;0.20;0.20;;;;;;;5.43;71.16;102177.53;5034117;28;20033;-83
2022/12/06 07:19:11;;;;;;;0.10;0.10;;;;;;;5.38;71.39;102173.88;5029903;28;20167;-83
2022/12/06 07:21:39;;;;;;;0.10;0.10;;;;;;;5.34;70.89;102175.56;5031752;28;20491;-84
2022/12/06 07:24:05;;;;;;;0.10;0.10;;;;;;;5.25;71.01;102179.72;5029074;28;20431;-82
2022/12/06 07:26:31;;;;;;;0.10;0.10;;;;;;;5.18;71.07;102173.44;5030659;28;20025;-83
2022/12/06 07:28:59;;;;;;;0.20;0.20;;;;;;;5.16;71.32;102165.50;5016025;28;20111;-82
2022/12/06 07:31:28;;;;;;;0.10;0.10;;;;;;;5.15;71.59;102171.63;5029789;28;20040;-82
2022/12/06 07:33:56;;;;;;;0.10;0.10;;;;;;;5.13;71.47;102172.44;5030860;28;20495;-81
2022/12/06 07:36:23;;;;;;;0.13;0.13;;;;;;;5.10;71.62;102175.88;5036604;28;20550;-82
2022/12/06 07:38:55;;;;;;;0.10;0.10;;;;;;;5.13;71.44;102182.94;5042527;28;20029;-82
2022/12/06 07:46:57;;;;;;;0.20;0.20;;;;;;;4.97;72.02;102189.56;5034239;28;20521;-81
2022/12/06 07:49:24;;;;;;;0.10;0.10;;;;;;;4.96;71.88;102193.94;5031364;28;20026;-81
2022/12/06 07:51:52;;;;;;;0.10;0.10;;;;;;;4.94;72.21;102202.63;5035441;28;20120;-81
2022/12/06 07:54:18;;;;;;;0.10;0.10;;;;;;;4.95;72.00;102193.91;5035663;28;20036;-81
2022/12/06 07:56:44;;;;;;;0.43;0.43;;;;;;;4.92;71.81;102199.06;5037154;28;20037;-81
2022/12/06 07:59:11;;;;;;;0.10;0.10;;;;;;;4.92;72.15;102199.06;5035220;28;20021;-82
2022/12/06 08:01:38;;;;;;;0.10;0.10;;;;;;;4.93;71.96;102200.84;5041419;28;20041;-80
2022/12/06 08:04:05;;;;;;;0.10;0.10;;;;;;;4.92;72.09;102197.34;5040480;28;20487;-81
2022/12/06 08:06:33;;;;;;;0.10;0.10;;;;;;;4.93;72.09;102198.22;5032436;28;20042;-80
2022/12/06 08:08:59;;;;;;;0.10;0.10;;;;;;;4.93;72.28;102203.47;5039021;28;20060;-80
2022/12/06 08:11:25;;;;;;;0.10;0.10;;;;;;;4.93;72.01;102200.84;5039313;28;20033;-81
2022/12/06 08:13:52;;;;;;;0.10;0.10;;;;;;;4.93;72.04;102206.97;5039006;28;20037;-80
2022/12/06 08:16:18;;;;;;;0.10;0.10;;;;;;;4.91;72.48;102203.44;5036904;28;20038;-80
2022/12/06 08:18:44;;;;;;;0.10;0.10;;;;;;;4.92;72.21;102205.22;5034426;28;20044;-80
2022/12/06 08:21:11;;;;;;;0.10;0.10;;;;;;;4.95;72.47;102200.03;5038511;28;20032;-80
2022/12/06 08:23:37;;;;;;;0.47;0.47;;;;;;;4.97;72.35;102200.97;5035654;28;20056;-80
2022/12/06 08:26:06;;;;;;;0.10;0.10;;;;;;;5.02;72.43;102198.44;5038242;28;20559;-81
2022/12/06 08:28:33;;;;;;;0.10;0.10;;;;;;;5.05;72.30;102198.53;5037409;28;20399;-80
2022/12/06 08:31:05;;;;;;;0.10;0.10;;;;;;;5.08;72.30;102198.59;5037815;28;20388;-80
2022/12/06 08:33:32;;;;;;;0.10;0.10;;;;;;;5.11;72.10;102203.03;5042017;28;20040;-81
2022/12/06 08:35:58;;;;;;;0.10;0.10;;;;;;;5.13;72.45;102210.09;5049750;28;20033;-80
2022/12/06 08:38:24;;;;;;;0.17;0.17;;;;;;;5.15;72.30;102207.53;5037688;28;20038;-81
2022/12/06 08:40:50;;;;;;;0.20;0.20;;;;;;;5.17;72.47;102211.97;5035614;28;20051;-81
2022/12/06 08:43:16;;;;;;;0.20;0.20;;;;;;;5.22;72.51;102208.56;5038163;28;20514;-81
2022/12/06 08:45:43;;;;;;;0.10;0.10;;;;;;;5.26;72.50;102208.66;5034172;28;20021;-81
2022/12/06 08:48:09;;;;;;;0.20;0.20;;;;;;;5.31;72.78;102198.28;5041915;28;20025;-82
2022/12/06 08:50:37;;;;;;;0.10;0.10;;;;;;;5.37;72.66;102203.69;5045045;28;20029;-82
2022/12/06 08:53:03;;;;;;;0.10;0.10;;;;;;;5.44;72.74;102204.69;5039106;28;20148;-82
2022/12/06 08:55:29;;;;;;;0.55;0.55;;;;;;;5.47;72.68;102199.50;5034003;28;20048;-82
2022/12/06 08:57:55;;;;;;;0.10;0.10;;;;;;;5.50;72.79;102200.44;5030085;28;20030;-81
2022/12/06 09:00:21;;;;;;;0.13;0.13;;;;;;;5.54;72.84;102197.91;5031674;28;20029;-80
2022/12/06 09:02:47;;;;;;;0.10;0.10;;;;;;;5.59;72.75;102205.03;5035806;28;20029;-80
2022/12/06 09:05:13;;;;;;;0.10;0.10;;;;;;;5.63;72.92;102201.63;5032342;28;20168;-80
2022/12/06 09:07:39;;;;;;;0.10;0.10;;;;;;;5.67;72.82;102198.22;5034835;28;20036;-83
2022/12/06 09:10:06;;;;;;;0.10;0.10;;;;;;;5.74;72.56;102199.22;5029212;28;20028;-82
2022/12/06 09:12:32;;;;;;;0.10;0.10;;;;;;;5.80;72.73;102194.09;5049390;28;20026;-84
2022/12/06 09:14:58;;;;;;;0.15;0.15;;;;;;;5.88;72.73;102196.91;5046492;28;20100;-84
2022/12/06 09:17:24;;;;;;;0.10;0.10;;;;;;;5.98;72.66;102200.59;5050819;28;20037;-83
2022/12/06 09:19:51;;;;;;;0.30;0.30;;;;;;;6.05;72.79;102194.66;5051575;28;20052;-83
2022/12/06 09:22:17;;;;;;;0.10;0.10;;;;;;;6.18;72.72;102203.69;5036458;28;20037;-84
2022/12/06 09:24:43;;;;;;;1.33;1.30;;;;;;;6.32;72.57;102204.84;5041615;28;20025;-84
2022/12/06 09:27:09;;;;;;;0.20;0.20;;;;;;;6.47;72.84;102204.25;5050713;28;20038;-84
2022/12/06 09:29:38;;;;;;;0.10;0.10;;;;;;;6.63;72.38;102194.91;5044434;28;20063;-84
2022/12/06 09:32:04;;;;;;;0.30;0.30;;;;;;;6.72;71.94;102196.81;5050212;28;20029;-84
2022/12/06 09:34:30;;;;;;;0.10;0.10;;;;;;;6.90;72.19;102197.97;5051655;28;20040;-84
2022/12/06 09:37:04;;;;;;;0.10;0.10;;;;;;;7.04;71.94;102201.75;5051557;28;20048;-84
2022/12/06 09:39:33;;;;;;;0.20;0.20;;;;;;;7.13;71.61;102204.53;5052172;28;20056;-84
2022/12/06 09:42:33;;;;;;;0.10;0.10;;;;;;;7.30;71.21;102206.53;5037201;28;20103;-84
2022/12/06 09:48:14;;;;;;;0.10;0.10;;;;;;;7.54;70.47;102202.47;5129118;27;1214050;-84
2022/12/06 09:51:06;;;;;;;0.20;0.20;;;;;;;7.63;71.03;102202.63;5148956;27;20046;-84
2022/12/06 09:53:58;;;;;;;0.40;0.40;;;;;;;7.72;69.79;102208.03;5143927;27;20024;-82
2022/12/06 10:02:11;;;;;;;0.10;0.10;;;;;;;7.94;69.72;102198.66;5119477;27;20132;-82
2022/12/06 10:07:53;;;;;;;0.15;0.15;;;;;;;8.04;68.32;102189.09;5075988;28;20414;-82
2022/12/06 10:10:42;;;;;;;0.20;0.20;;;;;;;8.13;69.35;102188.31;5069164;28;20083;-82
2022/12/06 10:13:33;;;;;;;0.10;0.10;;;;;;;8.15;67.73;102193.59;5079344;28;20021;-82
2022/12/06 10:19:13;;;;;;;0.10;0.10;;;;;;;8.32;69.06;102193.81;5105719;27;20385;-82
2022/12/06 10:27:28;;;;;;;0.10;0.10;;;;;;;8.47;68.54;102199.28;5117600;27;20396;-82
2022/12/06 10:30:00;;;;;;;0.10;0.10;;;;;;;8.46;66.66;102196.59;5098998;28;20059;-82
2022/12/06 10:35:46;;;;;;;0.10;0.10;;;;;;;8.58;65.90;102186.19;5114820;27;1200084;-81
2022/12/06 10:38:24;;;;;;;0.10;0.10;;;;;;;8.59;66.63;102182.69;5130247;28;20152;-81
2022/12/06 10:41:21;;;;;;;0.10;0.10;;;;;;;8.66;66.22;102184.53;5126635;28;20035;-81
2022/12/06 10:47:08;;;;;;;0.10;0.10;;;;;;;8.79;67.08;102174.06;5110610;27;20739;-87
2022/12/06 10:55:22;;;;;;;0.10;0.10;;;;;;;8.94;64.70;102168.03;5138778;27;20378;-81
2022/12/06 11:00:49;;;;;;;0.32;0.32;;;;;;;9.05;67.17;102161.06;5129363;27;20121;-81
2022/12/06 11:03:40;;;;;;;0.10;0.10;;;;;;;9.28;66.95;102158.56;5130266;28;20489;-81
2022/12/06 11:06:26;;;;;;;0.10;0.10;;;;;;;9.38;65.65;102148.91;5130635;28;20071;-81
2022/12/06 11:08:58;;;;;;;0.10;0.10;;;;;;;9.36;63.87;102150.69;5123446;28;20020;-82
2022/12/06 11:11:30;;;;;;;0.35;0.35;;;;;;;9.38;65.16;102154.22;5119322;28;20028;-81
2022/12/06 11:14:22;;;;;;;0.30;0.30;;;;;;;9.34;63.19;102153.31;5117712;27;20029;-81
2022/12/06 11:17:00;;;;;;;0.20;0.20;;;;;;;9.33;65.03;102145.38;5113969;28;20031;-82
2022/12/06 11:19:36;;;;;;;0.20;0.20;;;;;;;9.30;63.90;102148.88;5107596;28;20028;-81
2022/12/06 11:24:49;;;;;;;0.10;0.10;;;;;;;9.34;64.62;102147.13;5107947;27;20404;-86
2022/12/06 11:27:24;;;;;;;0.20;0.20;;;;;;;9.39;63.92;102145.41;5092988;27;20062;-86
2022/12/06 11:29:52;;;;;;;0.10;0.10;;;;;;;9.48;63.78;102141.91;5089131;28;20036;-86
2022/12/06 11:32:18;;;;;;;0.20;0.20;;;;;;;9.55;64.41;102143.72;5089237;28;20047;-86
2022/12/06 11:34:50;;;;;;;0.15;0.15;;;;;;;9.50;62.80;102137.53;5102035;28;20023;-86
2022/12/06 11:37:20;;;;;;;0.20;0.20;;;;;;;9.57;63.80;102138.44;5098161;27;20482;-85
2022/12/06 11:39:51;;;;;;;0.20;0.20;;;;;;;9.57;63.77;102141.09;5092504;28;20035;-86
2022/12/06 11:42:24;;;;;;;0.20;0.20;;;;;;;9.60;63.90;102136.69;5085962;28;20024;-86
2022/12/06 11:45:14;;;;;;;0.25;0.25;;;;;;;9.61;63.50;102122.59;5095700;28;20076;-86
2022/12/06 11:47:40;;;;;;;1.35;0.47;;;;;;;9.55;62.87;102126.09;5094231;28;20047;-86
2022/12/06 11:50:15;;;;;;;0.10;0.10;;;;;;;9.58;63.23;102122.56;5089844;28;20119;-86
2022/12/06 11:52:56;;;;;;;0.10;0.10;;;;;;;9.62;62.74;102121.72;5089464;28;20032;-86
2022/12/06 11:55:30;;;;;;;0.10;0.10;;;;;;;9.73;63.44;102121.75;5089676;28;20437;-85
2022/12/06 11:58:04;;;;;;;0.10;0.10;;;;;;;9.83;63.33;102120.94;5101415;28;20500;-85
2022/12/06 12:00:30;;;;;;;0.20;0.20;;;;;;;9.87;62.82;102117.41;5089603;28;20032;-86
2022/12/06 12:02:57;;;;;;;0.10;0.10;;;;;;;9.99;61.60;102127.16;5089234;28;20407;-86
2022/12/06 12:08:18;;;;;;;0.10;0.10;;;;;;;10.04;63.02;102119.22;5084017;27;1905028;-81
2022/12/06 12:10:56;;;;;;;0.20;0.20;;;;;;;10.09;60.55;102122.75;5147101;27;20032;-82
2022/12/06 12:13:54;;;;;;;0.10;0.10;;;;;;;10.16;62.18;102121.88;5147877;27;20027;-81
2022/12/06 12:16:21;;;;;;;0.20;0.20;;;;;;;10.15;60.70;102111.28;5129602;28;20032;-81
2022/12/06 12:18:52;;;;;;;0.20;0.20;;;;;;;10.12;60.79;102112.19;5137506;28;20491;-81
2022/12/06 12:21:30;;;;;;;0.10;0.10;;;;;;;10.06;59.81;102114.81;5140420;28;20053;-82
2022/12/06 12:23:57;;;;;;;0.20;0.20;;;;;;;9.99;59.34;102110.38;5142784;28;20034;-82
2022/12/06 12:26:32;;;;;;;0.10;0.10;;;;;;;10.03;60.82;102101.53;5134992;28;20032;-81
2022/12/06 12:32:08;;;;;;;0.10;0.10;;;;;;;10.13;61.19;102090.13;5091987;27;20393;-82
2022/12/06 12:34:34;;;;;;;1.00;1.00;;;;;;;10.05;60.25;102089.22;5083189;28;20036;-82
2022/12/06 12:37:03;;;;;;;0.10;0.10;;;;;;;10.04;59.75;102093.63;5082949;28;20398;-81
2022/12/06 12:39:36;;;;;;;0.13;0.13;;;;;;;10.07;59.52;102086.56;5063739;28;20097;-81
2022/12/06 12:42:03;;;;;;;0.22;0.22;;;;;;;10.00;58.25;102083.88;5077898;28;20056;-81
2022/12/06 12:44:36;;;;;;;0.10;0.10;;;;;;;10.07;60.10;102081.25;5081238;28;20029;-82
2022/12/06 12:50:04;;;;;;;0.10;0.10;;;;;;;10.09;59.10;102076.84;5091710;27;20406;-86
2022/12/06 12:52:37;;;;;;;0.10;0.10;;;;;;;10.04;59.57;102074.19;5094986;28;20036;-86
2022/12/06 12:57:58;;;;;;;0.10;0.10;;;;;;;9.95;60.19;102069.75;5101806;27;20389;-81
2022/12/06 13:00:31;;;;;;;0.10;0.10;;;;;;;9.98;59.70;102066.22;5098875;28;20036;-81
2022/12/06 13:03:02;;;;;;;0.13;0.13;;;;;;;9.97;60.59;102069.75;5100061;28;20024;-82
2022/12/06 13:05:34;;;;;;;0.10;0.10;;;;;;;9.92;60.03;102053.88;5114529;28;20035;-81
2022/12/06 13:08:11;;;;;;;0.10;0.10;;;;;;;9.93;60.37;102063.59;5107005;28;20028;-81
2022/12/06 13:10:42;;;;;;;0.35;0.35;;;;;;;9.83;60.37;102073.28;5100461;28;20099;-82
2022/12/06 13:13:17;;;;;;;0.98;0.68;;;;;;;9.96;61.02;102055.66;5087215;28;20024;-82